createdAt,value
2023-02-09T00:00:06.858Z,15.68
2023-02-09T00:02:40.658Z,14.70
2023-02-09T00:05:08.004Z,14.38
2023-02-09T00:07:34.646Z,15.15
2023-02-09T00:10:01.265Z,15.13
2023-02-09T00:12:46.423Z,15.57
2023-02-09T00:15:12.994Z,14.80
2023-02-09T00:17:39.524Z,15.20
2023-02-09T00:20:07.513Z,15.13
2023-02-09T00:22:34.211Z,14.27
2023-02-09T00:25:00.802Z,15.38
2023-02-09T00:27:27.388Z,15.30
2023-02-09T00:29:53.901Z,17.20
2023-02-09T00:32:20.488Z,15.23
2023-02-09T00:34:47.109Z,17.33
2023-02-09T00:37:13.727Z,15.77
2023-02-09T00:39:40.253Z,17.23
2023-02-09T00:42:06.850Z,16.23
2023-02-09T00:44:38.894Z,17.98
2023-02-09T00:47:07.880Z,15.63
2023-02-09T00:49:34.722Z,16.70
2023-02-09T00:52:01.264Z,16.80
2023-02-09T00:54:27.837Z,17.35
2023-02-09T00:56:54.434Z,17.63
2023-02-09T00:59:21.047Z,17.33
2023-02-09T01:01:47.553Z,15.73
2023-02-09T01:04:14.637Z,17.20
2023-02-09T01:06:41.288Z,17.17
2023-02-09T01:09:07.844Z,17.95
2023-02-09T01:11:34.461Z,18.17
2023-02-09T01:14:02.401Z,17.05
2023-02-09T01:16:31.589Z,16.67
2023-02-09T01:19:00.089Z,17.13
2023-02-09T01:21:29.232Z,16.48
2023-02-09T01:23:55.998Z,16.48
2023-02-09T01:26:22.925Z,16.90
2023-02-09T01:28:53.108Z,16.63
2023-02-09T01:31:27.354Z,15.25
2023-02-09T01:33:56.043Z,15.73
2023-02-09T01:36:22.910Z,15.05
2023-02-09T01:38:49.903Z,14.10
2023-02-09T01:41:17.841Z,14.48
2023-02-09T01:43:54.672Z,13.18
2023-02-09T01:46:23.162Z,14.05
2023-02-09T01:48:53.530Z,14.38
2023-02-09T01:51:21.645Z,14.52
2023-02-09T01:53:48.325Z,13.88
2023-02-09T01:56:21.654Z,14.02
2023-02-09T01:58:48.505Z,14.05
2023-02-09T02:01:15.792Z,14.52
2023-02-09T02:03:42.447Z,15.02
2023-02-09T02:06:14.329Z,16.35
2023-02-09T02:09:01.030Z,15.55
2023-02-09T02:11:29.722Z,15.50
2023-02-09T02:13:57.429Z,16.58
2023-02-09T02:16:26.841Z,15.07
2023-02-09T02:19:08.809Z,14.95
2023-02-09T02:22:07.789Z,14.45
2023-02-09T02:24:56.100Z,13.13
2023-02-09T02:27:50.119Z,13.93
2023-02-09T02:30:28.871Z,12.50
2023-02-09T02:33:37.308Z,12.02
2023-02-09T02:36:14.243Z,12.13
2023-02-09T02:38:56.990Z,11.93
2023-02-09T02:41:51.350Z,11.50
2023-02-09T02:44:18.956Z,12.02
2023-02-09T02:46:51.762Z,11.13
2023-02-09T02:49:44.238Z,11.35
2023-02-09T02:52:11.687Z,10.68
2023-02-09T02:54:47.591Z,11.65
2023-02-09T02:57:19.059Z,12.02
2023-02-09T02:59:50.242Z,11.93
2023-02-09T03:02:22.713Z,11.20
2023-02-09T03:04:55.332Z,11.43
2023-02-09T03:07:22.063Z,11.38
2023-02-09T03:09:53.727Z,11.23
2023-02-09T03:12:34.282Z,12.20
2023-02-09T03:15:09.489Z,11.13
2023-02-09T03:17:55.022Z,10.95
2023-02-09T03:20:30.950Z,11.10
2023-02-09T03:23:02.525Z,10.85
2023-02-09T03:25:37.548Z,10.85
2023-02-09T03:28:08.498Z,12.98
2023-02-09T03:30:36.918Z,12.10
2023-02-09T03:33:05.065Z,12.07
2023-02-09T03:35:38.517Z,12.70
2023-02-09T03:38:06.666Z,10.60
2023-02-09T03:40:36.007Z,11.38
2023-02-09T03:43:02.589Z,12.40
2023-02-09T03:45:29.112Z,12.38
2023-02-09T03:47:55.628Z,12.27
2023-02-09T03:50:22.217Z,12.77
2023-02-09T03:52:48.768Z,13.15
2023-02-09T03:55:15.365Z,13.80
2023-02-09T03:57:41.893Z,13.45
2023-02-09T04:00:09.747Z,11.70
2023-02-09T04:02:39.262Z,15.30
2023-02-09T04:05:06.373Z,11.77
2023-02-09T04:07:33.197Z,11.98
2023-02-09T04:09:59.719Z,12.27
2023-02-09T04:12:26.296Z,13.63
2023-02-09T04:14:52.845Z,13.63
2023-02-09T04:17:19.375Z,13.05
2023-02-09T04:19:45.959Z,12.88
2023-02-09T04:22:12.490Z,12.55
2023-02-09T04:24:43.896Z,13.73
2023-02-09T04:27:10.561Z,14.15
2023-02-09T04:29:37.058Z,13.02
2023-02-09T04:32:03.886Z,15.05
2023-02-09T04:34:31.387Z,13.48
2023-02-09T04:36:57.938Z,13.18
2023-02-09T04:39:24.527Z,11.40
2023-02-09T04:41:51.126Z,11.13
2023-02-09T04:44:17.797Z,12.27
2023-02-09T04:46:45.732Z,11.95
2023-02-09T04:49:12.722Z,13.88
2023-02-09T04:51:39.296Z,11.73
2023-02-09T04:54:05.932Z,13.32
2023-02-09T04:56:32.646Z,12.25
2023-02-09T04:59:18.060Z,12.05
2023-02-09T05:01:44.613Z,11.98
2023-02-09T05:04:11.151Z,12.23
2023-02-09T05:06:37.673Z,12.20
2023-02-09T05:09:04.242Z,12.25
2023-02-09T05:11:30.993Z,12.45
2023-02-09T05:13:57.501Z,12.68
2023-02-09T05:16:24.056Z,11.73
2023-02-09T05:18:51.143Z,12.85
2023-02-09T05:21:17.712Z,12.68
2023-02-09T05:23:44.343Z,12.90
2023-02-09T05:26:10.909Z,12.88
2023-02-09T05:28:37.438Z,11.80
2023-02-09T05:31:04.167Z,13.43
2023-02-09T05:33:30.732Z,11.10
2023-02-09T05:35:57.376Z,11.80
2023-02-09T05:38:24.030Z,11.77
2023-02-09T05:40:51.109Z,12.32
2023-02-09T05:43:18.226Z,14.15
2023-02-09T05:45:45.723Z,13.75
2023-02-09T05:48:12.344Z,12.25
2023-02-09T05:50:38.877Z,13.85
2023-02-09T05:53:08.808Z,14.32
2023-02-09T05:55:35.455Z,12.38
2023-02-09T05:58:02.054Z,13.93
2023-02-09T06:00:29.866Z,12.10
2023-02-09T06:02:57.097Z,13.60
2023-02-09T06:05:24.130Z,13.30
2023-02-09T06:07:50.680Z,13.48
2023-02-09T06:10:18.388Z,12.20
2023-02-09T06:12:44.944Z,13.43
2023-02-09T06:15:11.892Z,13.07
2023-02-09T06:17:38.485Z,13.30
2023-02-09T06:20:05.515Z,14.38
2023-02-09T06:22:32.048Z,12.90
2023-02-09T06:24:59.705Z,14.10
2023-02-09T06:27:26.270Z,12.77
2023-02-09T06:29:52.965Z,12.52
2023-02-09T06:32:19.563Z,12.88
2023-02-09T06:34:46.323Z,12.10
2023-02-09T06:37:12.852Z,12.38
2023-02-09T06:39:39.387Z,12.55
2023-02-09T06:42:05.987Z,13.90
2023-02-09T06:44:32.511Z,13.25
2023-02-09T06:46:59.044Z,13.75
2023-02-09T06:49:26.620Z,13.40
2023-02-09T06:51:53.336Z,12.32
2023-02-09T06:54:20.664Z,12.57
2023-02-09T06:56:47.845Z,12.73
2023-02-09T06:59:14.466Z,12.90
2023-02-09T07:01:41.338Z,14.95
2023-02-09T07:04:07.891Z,14.88
2023-02-09T07:06:34.437Z,14.18
2023-02-09T07:09:01.010Z,14.10
2023-02-09T07:11:27.885Z,14.68
2023-02-09T07:13:54.360Z,15.27
2023-02-09T07:16:21.000Z,16.33
2023-02-09T07:18:47.578Z,16.45
2023-02-09T07:21:18.352Z,16.35
2023-02-09T07:23:46.146Z,14.25
2023-02-09T07:26:15.632Z,14.15
2023-02-09T07:28:42.552Z,13.30
2023-02-09T07:31:12.185Z,12.98
2023-02-09T07:33:41.528Z,14.18
2023-02-09T07:36:11.598Z,14.20
2023-02-09T07:38:38.811Z,13.20
2023-02-09T07:41:07.437Z,13.88
2023-02-09T07:43:34.456Z,14.80
2023-02-09T07:46:02.695Z,16.55
2023-02-09T07:48:29.845Z,18.60
2023-02-09T07:50:57.150Z,14.43
2023-02-09T07:53:23.939Z,13.52
2023-02-09T07:55:50.813Z,13.68
2023-02-09T07:58:19.955Z,13.88
2023-02-09T08:00:47.894Z,13.57
2023-02-09T08:03:20.321Z,14.63
2023-02-09T08:05:55.378Z,13.70
2023-02-09T08:08:23.234Z,15.30
2023-02-09T08:10:51.306Z,13.57
2023-02-09T08:13:18.092Z,14.60
2023-02-09T08:15:51.964Z,15.73
2023-02-09T08:18:24.226Z,14.35
2023-02-09T08:20:52.434Z,15.90
2023-02-09T08:23:25.767Z,14.90
2023-02-09T08:25:52.890Z,16.88
2023-02-09T08:28:21.749Z,15.10
2023-02-09T08:30:49.775Z,14.77
2023-02-09T08:33:18.501Z,14.88
2023-02-09T08:35:45.414Z,15.25
2023-02-09T08:38:12.169Z,14.30
2023-02-09T08:40:44.121Z,14.23
2023-02-09T08:43:12.394Z,16.65
2023-02-09T08:45:41.163Z,15.65
2023-02-09T08:48:12.057Z,13.80
2023-02-09T08:50:39.763Z,14.95
2023-02-09T08:53:07.130Z,14.65
2023-02-09T08:55:37.457Z,14.45
2023-02-09T08:58:05.028Z,15.30
2023-02-09T09:00:32.252Z,15.32
2023-02-09T09:02:58.775Z,16.27
2023-02-09T09:05:25.321Z,16.75
2023-02-09T09:07:51.896Z,15.38
2023-02-09T09:10:18.793Z,15.50
2023-02-09T09:12:45.509Z,13.82
2023-02-09T09:15:12.094Z,14.15
2023-02-09T09:17:38.873Z,19.63
2023-02-09T09:20:07.118Z,17.90
2023-02-09T09:22:33.768Z,17.10
2023-02-09T09:25:00.289Z,16.77
2023-02-09T09:27:28.213Z,16.55
2023-02-09T09:29:58.236Z,17.52
2023-02-09T09:32:25.533Z,17.42
2023-02-09T09:35:00.436Z,17.15
2023-02-09T09:37:27.482Z,17.30
2023-02-09T09:39:54.219Z,15.38
2023-02-09T09:42:38.418Z,16.67
2023-02-09T09:45:11.720Z,14.60
2023-02-09T09:47:40.555Z,16.45
2023-02-09T09:50:26.260Z,17.90
2023-02-09T09:53:01.184Z,16.92
2023-02-09T09:55:30.246Z,17.30
2023-02-09T09:57:59.594Z,18.60
2023-02-09T10:00:37.862Z,19.30
2023-02-09T10:03:13.531Z,18.88
2023-02-09T10:05:40.145Z,19.00
2023-02-09T10:08:09.784Z,20.55
2023-02-09T10:11:00.524Z,19.23
2023-02-09T10:13:33.836Z,20.20
2023-02-09T10:16:01.151Z,18.15
2023-02-09T10:18:30.145Z,18.70
2023-02-09T10:21:08.943Z,18.38
2023-02-09T10:24:13.201Z,21.85
2023-02-09T10:26:42.809Z,20.08
2023-02-09T10:29:12.018Z,19.52
2023-02-09T10:31:46.424Z,18.38
2023-02-09T10:34:40.960Z,20.40
2023-02-09T10:37:24.810Z,20.80
2023-02-09T10:39:59.143Z,21.90
2023-02-09T10:42:31.186Z,19.15
2023-02-09T10:45:04.983Z,21.02
2023-02-09T10:47:31.966Z,20.60
2023-02-09T10:50:12.841Z,19.25
2023-02-09T10:52:54.670Z,20.05
2023-02-09T10:55:25.858Z,24.52
2023-02-09T10:58:04.738Z,23.55
2023-02-09T11:00:52.731Z,25.88
2023-02-09T11:03:27.292Z,24.30
2023-02-09T11:05:59.544Z,26.80
2023-02-09T11:08:37.674Z,25.35
2023-02-09T11:11:16.063Z,26.08
2023-02-09T11:13:42.637Z,24.65
2023-02-09T11:33:38.374Z,37.42
2023-02-09T11:36:40.187Z,36.33
2023-02-09T11:39:33.334Z,35.95
2023-02-09T11:42:23.491Z,35.70
2023-02-09T11:45:09.077Z,32.83
2023-02-09T11:47:53.584Z,32.42
2023-02-09T11:50:42.264Z,33.28
2023-02-09T11:53:32.148Z,32.67
2023-02-09T11:56:01.861Z,33.45
2023-02-09T11:58:38.975Z,36.97
2023-02-09T12:01:23.997Z,37.40
2023-02-09T12:04:47.644Z,39.47
2023-02-09T12:07:33.213Z,38.95
2023-02-09T12:10:21.454Z,43.45
2023-02-09T12:12:59.065Z,43.35
2023-02-09T12:15:35.781Z,43.13
2023-02-09T12:18:07.540Z,47.00
2023-02-09T12:20:37.041Z,44.13
2023-02-09T12:23:34.597Z,45.95
2023-02-09T12:26:12.942Z,50.58
2023-02-09T12:29:03.532Z,48.58
2023-02-09T12:31:51.373Z,45.80
2023-02-09T12:34:27.474Z,48.70
2023-02-09T12:37:12.820Z,49.55
2023-02-09T12:40:11.560Z,49.10
2023-02-09T12:42:40.974Z,50.25
2023-02-09T12:45:34.447Z,50.58
2023-02-09T12:48:21.387Z,50.58
2023-02-09T12:50:51.564Z,51.65
2023-02-09T12:53:24.441Z,48.72
2023-02-09T12:56:09.445Z,56.65
2023-02-09T12:58:44.790Z,50.97
2023-02-09T13:01:14.223Z,49.83
2023-02-09T13:03:45.215Z,51.00
2023-02-09T13:06:28.354Z,49.22
2023-02-09T13:08:59.538Z,48.90
2023-02-09T13:11:31.094Z,50.72
2023-02-09T13:14:04.146Z,54.95
2023-02-09T13:16:44.172Z,55.47
2023-02-09T13:19:47.407Z,51.78
2023-02-09T13:22:39.098Z,50.85
2023-02-09T13:25:20.400Z,51.42
2023-02-09T13:27:49.612Z,51.55
2023-02-09T13:30:28.809Z,49.05
2023-02-09T13:33:35.512Z,52.75
2023-02-09T13:36:30.667Z,51.80
2023-02-09T13:38:58.543Z,50.17
2023-02-09T13:41:36.245Z,53.20
2023-02-09T13:44:03.149Z,48.88
2023-02-09T13:46:35.212Z,50.70
2023-02-09T13:49:15.848Z,50.13
2023-02-09T13:51:42.541Z,51.20
2023-02-09T13:54:18.453Z,50.88
2023-02-09T13:56:45.062Z,49.50
2023-02-09T13:59:17.388Z,46.63
2023-02-09T14:01:46.452Z,48.08
2023-02-09T14:04:25.550Z,52.10
2023-02-09T14:07:02.997Z,48.88
2023-02-09T14:09:35.755Z,50.45
2023-02-09T14:12:05.347Z,48.13
2023-02-09T14:14:57.507Z,48.88
2023-02-09T14:17:26.769Z,47.72
2023-02-09T14:19:56.426Z,48.92
2023-02-09T14:22:33.656Z,51.28
2023-02-09T14:25:00.464Z,48.83
2023-02-09T14:27:29.581Z,48.88
2023-02-09T14:29:56.362Z,51.65
2023-02-09T14:32:45.373Z,50.03
2023-02-09T14:35:24.756Z,53.72
2023-02-09T14:37:54.757Z,53.33
2023-02-09T14:40:27.082Z,55.70
2023-02-09T14:42:58.410Z,53.53
2023-02-09T14:45:28.771Z,50.42
2023-02-09T14:47:55.383Z,51.55
2023-02-09T14:50:26.488Z,50.25
2023-02-09T14:53:14.922Z,50.67
2023-02-09T14:55:41.701Z,48.80
2023-02-09T14:58:16.522Z,50.95
2023-02-09T15:00:43.070Z,49.58
2023-02-09T15:03:09.651Z,48.88
2023-02-09T15:05:36.769Z,49.80
2023-02-09T15:08:08.667Z,53.20
2023-02-09T15:10:42.652Z,50.00
2023-02-09T15:13:15.022Z,51.60
2023-02-09T15:15:42.502Z,52.47
2023-02-09T15:18:23.704Z,49.17
2023-02-09T15:20:50.849Z,50.65
2023-02-09T15:23:18.288Z,53.75
2023-02-09T15:25:45.762Z,49.80
2023-02-09T15:28:28.403Z,51.90
2023-02-09T15:30:56.663Z,49.55
2023-02-09T15:33:25.218Z,50.85
2023-02-09T15:35:51.850Z,51.10
2023-02-09T15:38:18.937Z,50.38
2023-02-09T15:41:06.518Z,49.53
2023-02-09T15:44:08.539Z,48.75
2023-02-09T15:46:53.751Z,46.88
2023-02-09T15:49:20.339Z,45.67
2023-02-09T15:51:46.910Z,46.67
2023-02-09T15:54:23.008Z,43.55
2023-02-09T15:56:49.596Z,47.47
2023-02-09T15:59:19.495Z,43.90
2023-02-09T16:01:47.228Z,47.85
2023-02-09T16:04:14.990Z,45.05
2023-02-09T16:06:53.401Z,47.80
2023-02-09T16:09:28.659Z,45.30
2023-02-09T16:11:55.520Z,44.05
2023-02-09T16:14:24.839Z,46.92
2023-02-09T16:16:51.886Z,46.63
2023-02-09T16:19:19.195Z,43.70
2023-02-09T16:21:50.472Z,48.08
2023-02-09T16:24:41.000Z,46.00
2023-02-09T16:27:15.262Z,47.58
2023-02-09T16:29:42.075Z,49.13
2023-02-09T16:32:22.095Z,47.75
2023-02-09T16:34:49.905Z,47.45
2023-02-09T16:37:29.269Z,47.75
2023-02-09T16:39:58.108Z,47.38
2023-02-09T16:42:25.501Z,52.55
2023-02-09T16:44:52.953Z,53.70
2023-02-09T16:47:23.559Z,51.28
2023-02-09T16:50:20.301Z,50.83
2023-02-09T16:52:47.156Z,47.55
2023-02-09T16:55:23.265Z,52.20
2023-02-09T16:57:54.617Z,50.80
2023-02-09T17:00:23.677Z,51.35
2023-02-09T17:03:19.911Z,51.55
2023-02-09T17:05:49.980Z,52.50
2023-02-09T17:08:28.244Z,58.25
2023-02-09T17:10:56.348Z,55.38
2023-02-09T17:13:23.498Z,54.72
2023-02-09T17:16:00.182Z,52.45
2023-02-09T17:18:37.633Z,50.92
2023-02-09T17:21:08.277Z,54.25
2023-02-09T17:23:36.876Z,54.00
2023-02-09T17:26:03.772Z,53.35
2023-02-09T17:28:30.463Z,55.38
2023-02-09T17:31:02.165Z,57.35
2023-02-09T17:33:32.282Z,56.92
2023-02-09T17:38:47.168Z,57.25
2023-02-09T17:41:17.564Z,57.63
2023-02-09T17:43:44.512Z,53.33
2023-02-09T17:46:12.923Z,49.72
2023-02-09T17:48:39.628Z,48.08
2023-02-09T17:51:09.662Z,48.95
2023-02-09T17:53:36.268Z,49.80
2023-02-09T17:56:02.830Z,50.17
2023-02-09T17:58:29.531Z,48.60
2023-02-09T18:00:57.034Z,51.97
2023-02-09T18:03:25.898Z,53.75
2023-02-09T18:05:55.700Z,52.55
2023-02-09T18:08:22.410Z,56.40
2023-02-09T18:10:49.417Z,56.20
2023-02-09T18:13:17.955Z,55.20
2023-02-09T18:15:45.785Z,53.13
2023-02-09T18:18:12.663Z,51.90
2023-02-09T18:20:39.336Z,51.55
2023-02-09T18:23:05.947Z,54.90
2023-02-09T18:25:38.398Z,50.78
2023-02-09T18:28:07.011Z,58.85
2023-02-09T18:30:37.061Z,55.42
2023-02-09T18:33:04.595Z,53.83
2023-02-09T18:35:38.099Z,55.78
2023-02-09T18:38:07.372Z,56.42
2023-02-09T18:40:35.160Z,56.50
2023-02-09T18:43:03.288Z,55.30
2023-02-09T18:45:33.026Z,52.42
2023-02-09T18:48:00.208Z,53.33
2023-02-09T18:50:31.405Z,54.80
2023-02-09T18:53:00.750Z,54.95
2023-02-09T18:55:29.614Z,55.40
2023-02-09T18:58:01.245Z,54.10
2023-02-09T19:00:28.565Z,53.17
2023-02-09T19:02:57.820Z,55.42
2023-02-09T19:05:30.462Z,57.55
2023-02-09T19:07:57.143Z,57.75
2023-02-09T19:10:23.814Z,52.85
2023-02-09T19:12:50.468Z,53.92
2023-02-09T19:15:18.421Z,55.30
2023-02-09T19:17:46.081Z,52.20
2023-02-09T19:20:17.816Z,55.35
2023-02-09T19:22:45.386Z,54.40
2023-02-09T19:25:11.906Z,58.88
2023-02-09T19:27:38.466Z,56.42
2023-02-09T19:30:05.619Z,55.67
2023-02-09T19:32:32.204Z,58.47
2023-02-09T19:34:58.798Z,59.92
2023-02-09T19:37:25.382Z,58.70
2023-02-09T19:40:04.322Z,60.10
2023-02-09T19:42:32.439Z,58.83
2023-02-09T19:44:59.430Z,56.40
2023-02-09T19:47:27.314Z,54.63
2023-02-09T19:49:58.109Z,55.95
2023-02-09T19:52:26.616Z,61.67
2023-02-09T19:54:54.166Z,57.42
2023-02-09T19:57:22.150Z,56.17
2023-02-09T19:59:48.863Z,55.97
2023-02-09T20:02:16.789Z,54.03
2023-02-09T20:04:45.858Z,55.88
2023-02-09T20:07:13.834Z,56.30
2023-02-09T20:09:41.923Z,57.05
2023-02-09T20:12:08.537Z,57.22
2023-02-09T20:14:35.048Z,57.90
2023-02-09T20:17:01.605Z,59.60
2023-02-09T20:19:28.315Z,61.25
2023-02-09T20:21:54.873Z,63.55
2023-02-09T20:24:21.530Z,57.55
2023-02-09T20:26:48.192Z,61.00
2023-02-09T20:29:16.723Z,65.15
2023-02-09T20:31:43.535Z,62.15
2023-02-09T20:34:13.856Z,61.03
2023-02-09T20:36:43.067Z,57.42
2023-02-09T20:39:13.388Z,54.85
2023-02-09T20:42:00.108Z,57.45
2023-02-09T20:44:45.107Z,59.38
2023-02-09T20:47:11.625Z,58.75
2023-02-09T20:49:40.501Z,60.28
2023-02-09T20:52:07.511Z,60.75
2023-02-09T20:54:34.159Z,56.40
2023-02-09T20:57:00.988Z,56.50
2023-02-09T20:59:27.539Z,55.58
2023-02-09T21:01:54.090Z,58.40
2023-02-09T21:04:20.628Z,58.20
2023-02-09T21:06:47.271Z,57.25
2023-02-09T21:09:15.850Z,56.35
2023-02-09T21:11:42.572Z,57.58
2023-02-09T21:14:21.572Z,60.47
2023-02-09T21:16:56.091Z,57.22
2023-02-09T21:19:24.167Z,56.35
2023-02-09T21:21:50.876Z,57.58
2023-02-09T21:24:17.522Z,54.85
2023-02-09T21:26:44.179Z,57.78
2023-02-09T21:29:11.207Z,59.00
2023-02-09T21:31:38.428Z,60.28
2023-02-09T21:34:05.063Z,61.60
2023-02-09T21:36:31.568Z,62.50
2023-02-09T21:38:58.245Z,59.85
2023-02-09T21:41:44.985Z,62.90
2023-02-09T21:44:13.006Z,50.28
2023-02-09T21:46:39.536Z,60.88
2023-02-09T21:49:06.306Z,63.22
2023-02-09T21:51:32.894Z,59.28
2023-02-09T21:53:59.417Z,61.45
2023-02-09T21:56:26.203Z,62.33
2023-02-09T21:58:52.802Z,62.15
2023-02-09T22:01:19.368Z,60.78
2023-02-09T22:03:49.501Z,61.03
2023-02-09T22:06:16.098Z,58.40
2023-02-09T22:08:42.605Z,59.25
2023-02-09T22:11:10.315Z,59.20
2023-02-09T22:13:36.835Z,57.58
2023-02-09T22:16:09.124Z,57.45
2023-02-09T22:18:36.608Z,61.10
2023-02-09T22:21:07.580Z,57.40
2023-02-09T22:23:34.322Z,57.67
2023-02-09T22:26:02.784Z,58.65
2023-02-09T22:28:30.082Z,57.55
2023-02-09T22:30:56.881Z,59.67
2023-02-09T22:33:23.880Z,59.45
2023-02-09T22:35:50.377Z,59.88
2023-02-09T22:38:16.889Z,61.13
2023-02-09T22:40:43.475Z,60.67
2023-02-09T22:43:10.018Z,55.42
2023-02-09T22:45:36.649Z,57.25
2023-02-09T22:48:03.445Z,57.45
2023-02-09T22:50:29.951Z,57.13
2023-02-09T22:52:56.554Z,58.25
2023-02-09T22:55:23.136Z,58.88
2023-02-09T22:57:49.733Z,61.17
2023-02-09T23:00:17.549Z,57.47
2023-02-09T23:18:11.742Z,59.83
2023-02-09T23:20:38.275Z,59.92
2023-02-09T23:23:06.624Z,64.20
2023-02-09T23:25:33.249Z,64.63
2023-02-09T23:27:59.854Z,60.60
2023-02-09T23:30:26.453Z,63.25
2023-02-09T23:32:53.279Z,60.58
2023-02-09T23:35:20.975Z,59.90
2023-02-09T23:37:47.526Z,61.17
2023-02-09T23:40:14.050Z,63.38
2023-02-09T23:42:40.609Z,63.17
2023-02-09T23:45:07.638Z,59.40
2023-02-09T23:47:34.201Z,59.13
2023-02-09T23:50:00.723Z,57.33
2023-02-09T23:52:27.422Z,55.60
2023-02-09T23:54:54.058Z,57.45
2023-02-09T23:57:23.470Z,57.28
2023-02-09T23:59:50.022Z,60.50
